Time;durP1;ratioP1;P1;durP2;ratioP2;P2;SDS_P1;SDS_P2;PMS_P1;PMS_P2;Temp;Humidity;BMP_temperature;BMP_pressure;BME280_temperature;BME280_humidity;BME280_pressure;Samples;Min_cycle;Max_cycle;Signal;HPM_P1;HPM_P2
2021/02/20 00:08:18;;;;;;;98.1;79.5;;;;;;;1.5;100;99351.94;;;;
2021/02/20 00:18:16;;;;;;;104.3;83.7;;;;;;;1.46;100;99372.03;;;;
2021/02/20 00:28:14;;;;;;;113.1;89.6;;;;;;;1.33;100;99374.91;;;;
2021/02/20 00:38:12;;;;;;;113;90.4;;;;;;;1.19;100;99373.48;;;;
2021/02/20 00:48:09;;;;;;;94.3;80.7;;;;;;;1.34;100;99371.22;;;;
2021/02/20 00:58:07;;;;;;;109.6;82.1;;;;;;;1.44;100;99382.09;;;;
2021/02/20 01:08:05;;;;;;;97.9;81;;;;;;;1.26;100;99384.81;;;;
2021/02/20 01:18:03;;;;;;;103.2;77.7;;;;;;;1.32;100;99392.67;;;;
2021/02/20 01:28:01;;;;;;;83.3;65.5;;;;;;;1.35;100;99386.94;;;;
2021/02/20 01:37:59;;;;;;;98.4;74.8;;;;;;;1.32;100;99383.92;;;;
2021/02/20 01:47:57;;;;;;;93.8;69.1;;;;;;;1.61;100;99395.5;;;;
2021/02/20 01:57:55;;;;;;;90.2;64.3;;;;;;;1.63;100;99393.44;;;;
2021/02/20 02:07:52;;;;;;;78.5;69.3;;;;;;;1.61;100;99398.97;;;;
2021/02/20 02:17:50;;;;;;;85.6;69.1;;;;;;;1.7;100;99410.08;;;;
2021/02/20 02:28:06;;;;;;;87.2;68.4;;;;;;;1.78;100;99418.5;;;;
2021/02/20 02:37:46;;;;;;;87.9;66.9;;;;;;;1.82;100;99427.64;;;;
2021/02/20 02:47:44;;;;;;;79.6;64.1;;;;;;;1.71;100;99417.8;;;;
2021/02/20 02:57:42;;;;;;;77.8;58.4;;;;;;;1.66;100;99422.2;;;;
2021/02/20 03:07:43;;;;;;;75.9;64.1;;;;;;;1.61;100;99427.38;;;;
2021/02/20 03:17:38;;;;;;;88.2;66.4;;;;;;;1.57;100;99429.68;;;;
2021/02/20 03:27:36;;;;;;;80.4;66.5;;;;;;;1.59;100;99440.91;;;;
2021/02/20 03:37:34;;;;;;;133.5;99.4;;;;;;;1.46;100;99449.86;;;;
2021/02/20 03:47:32;;;;;;;114.5;90.5;;;;;;;1.33;100;99449.25;;;;
2021/02/20 03:57:29;;;;;;;93.1;72.1;;;;;;;1.24;100;99461.24;;;;
2021/02/20 04:07:27;;;;;;;111.9;89.1;;;;;;;1.12;100;99465.68;;;;
2021/02/20 04:17:25;;;;;;;113.1;84.1;;;;;;;0.93;100;99471.05;;;;
2021/02/20 04:27:23;;;;;;;110.3;85.7;;;;;;;0.91;100;99482.89;;;;
2021/02/20 04:37:21;;;;;;;115.1;87.4;;;;;;;0.82;100;99474.44;;;;
2021/02/20 04:47:19;;;;;;;90.5;78.9;;;;;;;0.77;100;99474.28;;;;
2021/02/20 04:57:16;;;;;;;93.2;65;;;;;;;0.96;100;99494.48;;;;
2021/02/20 05:07:14;;;;;;;93.7;68;;;;;;;0.91;100;99506.77;;;;
2021/02/20 05:17:12;;;;;;;85;64.9;;;;;;;0.88;100;99517.84;;;;
2021/02/20 05:27:10;;;;;;;75.7;62.1;;;;;;;1.05;100;99510.89;;;;
2021/02/20 05:37:07;;;;;;;73.5;61.9;;;;;;;1.14;100;99512.23;;;;
2021/02/20 05:47:05;;;;;;;75.1;60.7;;;;;;;1.2;100;99516.64;;;;
2021/02/20 05:57:03;;;;;;;84.8;63.2;;;;;;;1.32;100;99528.1;;;;
2021/02/20 06:07:01;;;;;;;78.3;61.4;;;;;;;1.44;100;99528.16;;;;
2021/02/20 06:16:59;;;;;;;76.6;58.4;;;;;;;1.61;100;99555.71;;;;
2021/02/20 06:27:07;;;;;;;115.5;92;;;;;;;1.39;100;99557.23;;;;
2021/02/20 06:36:55;;;;;;;99.1;85.5;;;;;;;1.3;100;99570.02;;;;
2021/02/20 06:46:53;;;;;;;105.8;83.8;;;;;;;1.13;100;99573.49;;;;
2021/02/20 06:56:53;;;;;;;92.7;82.3;;;;;;;1.26;100;99583.95;;;;
2021/02/20 07:06:48;;;;;;;100.7;83.2;;;;;;;1.44;100;99581.28;;;;
2021/02/20 07:16:46;;;;;;;107.1;82.9;;;;;;;1.64;100;99597.77;;;;
2021/02/20 07:26:45;;;;;;;113.9;88.4;;;;;;;2.03;100;99602.53;;;;
2021/02/20 07:36:41;;;;;;;105.5;94;;;;;;;2.54;100;99609.91;;;;
2021/02/20 07:46:39;;;;;;;105.9;92;;;;;;;2.77;100;99602.98;;;;
2021/02/20 07:56:37;;;;;;;102.7;91.4;;;;;;;2.99;100;99617.3;;;;
2021/02/20 08:06:35;;;;;;;88.6;77.4;;;;;;;3.31;98.76758;99612.41;;;;
2021/02/20 08:16:33;;;;;;;120.3;85.6;;;;;;;3.65;97.6543;99622.15;;;;
2021/02/20 08:26:31;;;;;;;96.4;81.2;;;;;;;3.57;95.69434;99619.88;;;;
2021/02/20 08:36:29;;;;;;;74;64.8;;;;;;;3.98;95.88477;99624.13;;;;
2021/02/20 08:46:27;;;;;;;81.7;67.9;;;;;;;4.02;93.24219;99631.41;;;;
2021/02/20 08:56:26;;;;;;;79.4;64.7;;;;;;;4.15;92.67188;99648.97;;;;
2021/02/20 09:06:24;;;;;;;72.1;54.2;;;;;;;4.87;92.36133;99646.41;;;;
2021/02/20 09:16:22;;;;;;;71;58.3;;;;;;;5.34;91.0957;99644.16;;;;
2021/02/20 09:26:20;;;;;;;85.4;61.3;;;;;;;5.68;88.35742;99653.69;;;;
2021/02/20 09:36:18;;;;;;;64;52.3;;;;;;;5.96;84.81934;99648.16;;;;
2021/02/20 09:46:17;;;;;;;36.9;32.3;;;;;;;6.3;80.61426;99661.34;;;;
2021/02/20 09:56:15;;;;;;;49.1;30.4;;;;;;;6.81;80.64258;99662.58;;;;
2021/02/20 10:06:14;;;;;;;52;38.1;;;;;;;6.92;77.91211;99672.31;;;;
2021/02/20 10:16:12;;;;;;;42.5;35.5;;;;;;;7;76.99805;99658.44;;;;
2021/02/20 10:26:11;;;;;;;22.9;16.7;;;;;;;7.44;73.08691;99659.78;;;;
2021/02/20 10:36:09;;;;;;;23.3;19.3;;;;;;;7.45;71.24902;99647.17;;;;
2021/02/20 10:46:08;;;;;;;22.4;14.1;;;;;;;7.49;69.45898;99634.86;;;;
2021/02/20 10:56:07;;;;;;;16.5;11.8;;;;;;;7.7;69.2002;99627.7;;;;
2021/02/20 11:06:05;;;;;;;13.2;10.8;;;;;;;8.04;65.39746;99608.21;;;;
2021/02/20 11:16:04;;;;;;;21.1;12.2;;;;;;;8.34;67.09668;99612.02;;;;
2021/02/20 11:26:03;;;;;;;14.9;12;;;;;;;8.31;63.52246;99615.25;;;;
2021/02/20 11:36:01;;;;;;;20.2;8.9;;;;;;;8.48;63.33301;99613.11;;;;
2021/02/20 11:46:00;;;;;;;14.2;9;;;;;;;8.68;62.82031;99609.63;;;;
2021/02/20 11:55:59;;;;;;;12.5;9.3;;;;;;;8.74;62.52441;99619.3;;;;
2021/02/20 12:05:57;;;;;;;13.6;9.2;;;;;;;8.62;61.24414;99611.5;;;;
2021/02/20 12:15:56;;;;;;;15.5;9.2;;;;;;;9.3;61.13672;99612.72;;;;
2021/02/20 12:25:55;;;;;;;9.8;7.9;;;;;;;8.82;58.47168;99606.1;;;;
2021/02/20 12:35:53;;;;;;;11.5;7.4;;;;;;;8.96;59.10059;99601.78;;;;
2021/02/20 12:45:53;;;;;;;11.8;7;;;;;;;9.2;58.2959;99595.83;;;;
2021/02/20 12:55:53;;;;;;;7.7;5.1;;;;;;;9.04;55.12012;99593.17;;;;
2021/02/20 13:05:50;;;;;;;7.2;5.5;;;;;;;9.18;55.03613;99588.02;;;;
2021/02/20 13:15:48;;;;;;;9.7;5.7;;;;;;;9.11;55.63672;99587.5;;;;
2021/02/20 13:25:47;;;;;;;13.3;7.3;;;;;;;8.54;56.43359;99598.59;;;;
2021/02/20 13:35:46;;;;;;;16.1;12;;;;;;;8.7;56.50098;99592.16;;;;
2021/02/20 13:45:47;;;;;;;6.8;5;;;;;;;8.77;55.86426;99602.63;;;;
2021/02/20 13:55:44;;;;;;;9;6.4;;;;;;;8.79;55.83398;99603.15;;;;
2021/02/20 14:05:42;;;;;;;8.9;6.4;;;;;;;8.8;56.95508;99602.89;;;;
2021/02/20 14:15:41;;;;;;;8.8;6.3;;;;;;;8.7;55.7666;99594.84;;;;
2021/02/20 14:25:40;;;;;;;10.9;6.8;;;;;;;8.76;55.86426;99601.81;;;;
2021/02/20 14:35:38;;;;;;;11.1;5.9;;;;;;;8.59;56.44043;99598.61;;;;
2021/02/20 14:45:37;;;;;;;10.6;5.8;;;;;;;8.37;56.17578;99582.75;;;;
2021/02/20 14:55:36;;;;;;;16.5;14.1;;;;;;;8.03;61.39844;99586.98;;;;
2021/02/20 15:05:35;;;;;;;18.8;13.9;;;;;;;7.71;63.34375;99583.69;;;;
2021/02/20 15:15:33;;;;;;;16;13;;;;;;;7.26;64.61621;99584.32;;;;
2021/02/20 15:25:32;;;;;;;14.1;12.4;;;;;;;6.89;65.86328;99582.53;;;;
2021/02/20 15:35:31;;;;;;;18;14.1;;;;;;;6.46;68.01758;99572.85;;;;
2021/02/20 15:45:29;;;;;;;16.3;14.5;;;;;;;6.06;69.26367;99572.52;;;;
2021/02/20 15:55:28;;;;;;;20;17.1;;;;;;;5.57;70.92969;99572.53;;;;
2021/02/20 16:05:26;;;;;;;31.1;23.6;;;;;;;5.1;72.89258;99573.29;;;;
2021/02/20 16:15:24;;;;;;;46.2;32.9;;;;;;;4.69;74.92969;99578.05;;;;
2021/02/20 16:25:23;;;;;;;34.8;27.9;;;;;;;4.31;77.2207;99581.47;;;;
2021/02/20 16:35:21;;;;;;;42.7;32.8;;;;;;;3.98;78.75195;99579.59;;;;
2021/02/20 16:45:19;;;;;;;93.2;69.2;;;;;;;3.66;80.54395;99585.65;;;;
2021/02/20 16:55:17;;;;;;;62.7;56.2;;;;;;;3.47;82.39258;99579.7;;;;
2021/02/20 17:05:15;;;;;;;50.4;45.1;;;;;;;3.49;84.3457;99572.27;;;;
2021/02/20 17:15:15;;;;;;;62.9;40.9;;;;;;;3.37;84.5332;99550.98;;;;
2021/02/20 17:25:12;;;;;;;54.4;39;;;;;;;3.35;84.5957;99552.28;;;;
2021/02/20 17:35:10;;;;;;;43.4;33.8;;;;;;;3.28;84.37207;99548.94;;;;
2021/02/20 17:45:08;;;;;;;37.8;32.7;;;;;;;3.19;83.9873;99547.7;;;;
2021/02/20 17:55:06;;;;;;;50.4;40.1;;;;;;;2.91;83.54785;99541.28;;;;
2021/02/20 18:05:04;;;;;;;44;31.8;;;;;;;2.94;83.26563;99543.47;;;;
2021/02/20 18:15:02;;;;;;;36.1;30;;;;;;;2.96;83.30371;99536.05;;;;
2021/02/20 18:25:00;;;;;;;45.6;31.6;;;;;;;2.96;83.07129;99517.41;;;;
2021/02/20 18:34:58;;;;;;;54.5;48.7;;;;;;;2.76;84.3916;99535.63;;;;
2021/02/20 18:44:56;;;;;;;82.6;60.8;;;;;;;2.48;85.24316;99546.98;;;;
2021/02/20 18:54:54;;;;;;;84.2;63.4;;;;;;;2.28;86.41602;99548.36;;;;
2021/02/20 19:04:54;;;;;;;84.2;61.2;;;;;;;2.03;86.40137;99546.7;;;;
2021/02/20 19:14:50;;;;;;;77.6;66.2;;;;;;;1.84;86.73633;99563.75;;;;
2021/02/20 19:24:48;;;;;;;89.9;70.4;;;;;;;1.58;87.59766;99574.77;;;;
2021/02/20 19:34:45;;;;;;;143.6;106.1;;;;;;;1.35;88.48633;99590.59;;;;
2021/02/20 19:44:43;;;;;;;105.9;87.4;;;;;;;1.13;90.38574;99602.7;;;;
2021/02/20 19:54:41;;;;;;;100.6;64.9;;;;;;;0.95;90.5918;99628.2;;;;
2021/02/20 20:04:39;;;;;;;101.2;79.8;;;;;;;0.78;91.10547;99627.14;;;;
2021/02/20 20:14:37;;;;;;;111.5;75.3;;;;;;;0.64;92.0166;99651.34;;;;
2021/02/20 20:24:34;;;;;;;90.5;66.9;;;;;;;0.26;93.1748;99643.48;;;;
2021/02/20 20:34:32;;;;;;;116.8;86.1;;;;;;;0.1;95.7793;99649.31;;;;
2021/02/20 20:44:30;;;;;;;237.7;173.7;;;;;;;0.09;96.63965;99660.94;;;;
2021/02/20 20:54:27;;;;;;;133.7;103.3;;;;;;;-0.05;95.84375;99654.91;;;;
2021/02/20 21:04:25;;;;;;;101.7;73.4;;;;;;;-0.2;95.74609;99657.83;;;;
2021/02/20 21:14:23;;;;;;;77.9;59.8;;;;;;;-0.34;94.79297;99660.74;;;;
2021/02/20 21:24:20;;;;;;;81.4;56.5;;;;;;;-0.59;93.9873;99661.45;;;;
2021/02/20 21:34:18;;;;;;;101.1;75.8;;;;;;;-0.79;94.53223;99657.23;;;;
2021/02/20 21:44:16;;;;;;;64.4;44;;;;;;;-0.73;96.36914;99661.73;;;;
2021/02/20 21:54:13;;;;;;;62.2;43.2;;;;;;;-0.76;95.90234;99656.82;;;;
2021/02/20 22:04:11;;;;;;;59.3;36.6;;;;;;;-0.78;96.5332;99633.23;;;;
2021/02/20 22:14:08;;;;;;;50.4;36.3;;;;;;;-0.89;96.03809;99633.86;;;;
2021/02/20 22:24:06;;;;;;;54.2;41.2;;;;;;;-0.95;95.76367;99629.41;;;;
2021/02/20 22:34:03;;;;;;;64.5;48.6;;;;;;;-1.13;95.28711;99627.41;;;;
2021/02/20 22:44:01;;;;;;;53.2;35.6;;;;;;;-1.19;95.48047;99641.47;;;;
2021/02/20 22:53:58;;;;;;;55.7;38.1;;;;;;;-1.35;94.72168;99641.06;;;;
2021/02/20 23:03:56;;;;;;;79.6;54.9;;;;;;;-1.55;96.25977;99646.36;;;;
2021/02/20 23:13:54;;;;;;;75.4;55.3;;;;;;;-1.79;96.18555;99644.31;;;;
2021/02/20 23:23:51;;;;;;;77.5;49.9;;;;;;;-1.94;97.36914;99612.01;;;;
2021/02/20 23:33:48;;;;;;;64.4;50.4;;;;;;;-2.05;96.86523;99602.85;;;;
2021/02/20 23:43:46;;;;;;;61.8;45.2;;;;;;;-2.05;98.16113;99618.7;;;;
2021/02/20 23:53:46;;;;;;;88.2;59.2;;;;;;;-2.18;98.68652;99621.29;;;;
